Login to view Products
 
Sunday, May 19, 2019 (11:32 UTC)
Sharjah International Airport
ICAO: OMSJ
IATA: SHJ
  • METAR OMSJ 191130Z 33013KT CAVOK 35/16 Q1007=
  • TAF OMSJ 191055Z 1912/2018 35013KT 8000 NSC PROB30 TEMPO 1912/2005 VRB20G35KT 1500 SHRA BLDU FEW040TCU BECMG 1915/1917 12007KT BECMG 2007/2009 32014KT BECMG 2015/2017 04005KT=
D:\Input Parser\Destinations\Final\10\OMSJL12181055559583425.txt
1